Time;durP1;ratioP1;P1;durP2;ratioP2;P2;SDS_P1;SDS_P2;PMS_P1;PMS_P2;Temp;Humidity;BMP_temperature;BMP_pressure;BME280_temperature;BME280_humidity;BME280_pressure;Samples;Min_cycle;Max_cycle;Signal;HPM_P1;HPM_P2
2022/05/25 00:01:26;;;;;;;30.20;6.77;;;15.30;39.40;;;;;;5006472;28;20483;-64
2022/05/25 00:03:53;;;;;;;31.73;7.00;;;15.30;38.90;;;;;;5007886;28;20562;-64
2022/05/25 00:06:19;;;;;;;30.20;7.10;;;15.30;39.10;;;;;;5008403;28;20483;-64
2022/05/25 00:08:46;;;;;;;30.43;6.97;;;15.30;39.00;;;;;;5008740;28;20452;-64
2022/05/25 00:11:13;;;;;;;28.73;7.03;;;15.30;39.30;;;;;;5007375;28;20455;-64
2022/05/25 00:13:41;;;;;;;28.07;6.20;;;15.30;39.30;;;;;;5008373;28;21005;-64
2022/05/25 00:16:08;;;;;;;29.70;7.20;;;15.30;39.50;;;;;;5008411;28;20550;-65
2022/05/25 00:18:35;;;;;;;29.77;6.50;;;15.30;39.60;;;;;;5008407;28;20999;-64
2022/05/25 00:21:01;;;;;;;30.23;6.70;;;15.30;39.50;;;;;;5008117;28;20463;-64
2022/05/25 00:23:28;;;;;;;29.57;6.30;;;15.30;39.40;;;;;;5006875;28;20583;-64
2022/05/25 00:25:56;;;;;;;29.70;6.50;;;15.30;39.50;;;;;;5008202;28;20459;-64
2022/05/25 00:28:25;;;;;;;29.20;6.50;;;15.30;39.50;;;;;;5008205;28;20546;-64
2022/05/25 00:30:53;;;;;;;28.53;6.93;;;15.30;39.50;;;;;;5007750;28;20479;-64
2022/05/25 00:33:21;;;;;;;28.17;6.60;;;15.30;39.60;;;;;;5006869;28;20871;-64
2022/05/25 00:35:48;;;;;;;31.67;7.03;;;15.30;39.50;;;;;;5008255;28;20574;-65
2022/05/25 00:38:15;;;;;;;27.10;6.03;;;15.30;39.50;;;;;;5008149;28;20575;-64
2022/05/25 00:40:43;;;;;;;28.33;5.93;;;15.30;39.50;;;;;;5007825;28;20468;-64
2022/05/25 00:43:11;;;;;;;30.60;6.70;;;15.30;39.50;;;;;;5007003;28;20451;-65
2022/05/25 00:45:41;;;;;;;30.53;6.87;;;15.30;39.80;;;;;;5008683;28;20460;-64
2022/05/25 00:48:13;;;;;;;32.43;7.70;;;15.30;40.30;;;;;;5007948;28;20493;-64
2022/05/25 00:53:24;;;;;;;30.50;6.87;;;15.30;39.70;;;;;;5006607;28;20650;-65
2022/05/25 00:55:51;;;;;;;29.90;6.97;;;15.40;39.80;;;;;;5008354;28;20464;-65
2022/05/25 00:58:18;;;;;;;32.10;8.17;;;15.30;39.80;;;;;;5008015;28;20468;-65
2022/05/25 01:00:45;;;;;;;28.50;7.20;;;15.40;39.80;;;;;;5006975;28;20466;-64
2022/05/25 01:03:38;;;;;;;27.60;6.33;;;15.40;40.00;;;;;;5007840;28;20463;-64
2022/05/25 01:06:10;;;;;;;29.37;6.90;;;15.40;40.50;;;;;;5006873;28;20456;-65
2022/05/25 01:08:48;;;;;;;29.47;7.30;;;15.40;40.50;;;;;;5008302;28;20881;-65
2022/05/25 01:11:24;;;;;;;30.50;7.17;;;15.50;40.70;;;;;;5007814;28;20452;-65
2022/05/25 01:14:02;;;;;;;32.77;8.67;;;15.40;40.30;;;;;;5007820;28;20456;-65
2022/05/25 01:16:38;;;;;;;29.73;7.70;;;15.50;40.70;;;;;;5007126;28;20522;-64
2022/05/25 01:19:20;;;;;;;29.90;6.90;;;15.50;41.10;;;;;;5007758;28;20793;-64
2022/05/25 01:21:53;;;;;;;33.67;7.00;;;15.50;40.90;;;;;;5007508;28;20545;-64
2022/05/25 01:24:30;;;;;;;28.40;5.93;;;15.50;40.20;;;;;;5007616;28;20436;-64
2022/05/25 01:27:18;;;;;;;27.63;5.43;;;15.50;39.80;;;;;;5006895;28;20487;-65
2022/05/25 01:30:20;;;;;;;28.10;4.47;;;15.50;40.00;;;;;;5008110;28;20947;-64
2022/05/25 01:32:56;;;;;;;32.23;4.60;;;15.50;39.60;;;;;;5006838;28;20451;-64
2022/05/25 01:35:30;;;;;;;27.90;4.30;;;15.50;39.20;;;;;;5006527;28;20455;-65
2022/05/25 01:38:04;;;;;;;31.90;4.53;;;15.40;38.80;;;;;;5007319;28;20848;-64
2022/05/25 01:40:36;;;;;;;26.83;3.63;;;15.40;38.70;;;;;;5007371;28;20870;-65
2022/05/25 01:43:07;;;;;;;27.70;5.07;;;15.40;38.70;;;;;;5007308;28;20546;-65
2022/05/25 01:45:43;;;;;;;29.10;4.60;;;15.40;38.70;;;;;;5009214;28;21072;-65
2022/05/25 01:48:12;;;;;;;27.90;4.40;;;15.40;38.80;;;;;;5010878;28;20479;-65
2022/05/25 01:50:45;;;;;;;27.87;3.90;;;15.40;38.60;;;;;;5011361;28;20458;-65
2022/05/25 01:53:15;;;;;;;27.40;4.17;;;15.40;38.60;;;;;;5010381;28;20983;-64
2022/05/25 01:55:47;;;;;;;28.10;3.90;;;15.30;38.50;;;;;;5010280;28;20843;-64
2022/05/25 01:58:18;;;;;;;27.80;3.63;;;15.30;38.40;;;;;;5010759;28;20574;-64
2022/05/25 02:00:49;;;;;;;27.00;3.70;;;15.30;38.30;;;;;;5008918;28;20555;-64
2022/05/25 02:06:34;;;;;;;27.00;3.97;;;15.20;38.10;;;;;;5008609;28;20458;-65
2022/05/25 02:09:15;;;;;;;26.90;3.97;;;15.20;38.50;;;;;;4994795;28;20463;-65
2022/05/25 02:11:45;;;;;;;27.50;3.40;;;15.10;38.80;;;;;;5009539;28;20464;-65
2022/05/25 02:14:27;;;;;;;32.67;4.40;;;15.10;39.00;;;;;;5010725;28;20464;-65
2022/05/25 02:17:11;;;;;;;27.33;3.40;;;15.00;39.20;;;;;;5010200;28;20490;-65
2022/05/25 02:19:45;;;;;;;27.80;4.17;;;15.00;39.30;;;;;;5010885;28;20920;-65
2022/05/25 02:22:18;;;;;;;27.53;3.83;;;14.90;39.60;;;;;;5008035;28;20974;-64
2022/05/25 02:24:53;;;;;;;27.87;4.27;;;14.90;39.70;;;;;;5010655;28;20886;-65
2022/05/25 02:27:25;;;;;;;28.40;3.60;;;14.80;40.40;;;;;;5010785;28;20476;-64
2022/05/25 02:29:57;;;;;;;27.13;3.87;;;14.80;39.70;;;;;;5010562;28;20456;-65
2022/05/25 02:32:31;;;;;;;26.97;3.53;;;14.80;39.70;;;;;;5007593;28;20507;-65
2022/05/25 02:34:59;;;;;;;26.80;3.50;;;14.80;39.50;;;;;;5009691;28;20454;-65
2022/05/25 02:37:30;;;;;;;27.40;3.90;;;14.80;39.50;;;;;;5010142;28;20487;-64
2022/05/25 02:39:59;;;;;;;27.27;3.70;;;14.80;39.40;;;;;;5009876;28;20472;-65
2022/05/25 02:42:26;;;;;;;26.97;4.53;;;14.80;39.70;;;;;;5008203;28;21084;-65
2022/05/25 02:44:53;;;;;;;27.37;3.87;;;14.70;39.90;;;;;;5008935;28;20460;-65
2022/05/25 02:47:21;;;;;;;25.97;3.27;;;14.70;39.90;;;;;;5010089;28;20999;-65
2022/05/25 02:49:49;;;;;;;26.87;3.50;;;14.70;40.00;;;;;;5010542;28;20487;-65
2022/05/25 02:52:16;;;;;;;26.90;3.70;;;14.70;40.20;;;;;;5009987;28;20471;-65
2022/05/25 02:54:42;;;;;;;30.50;4.63;;;14.70;40.20;;;;;;5008481;28;20459;-65
2022/05/25 02:57:09;;;;;;;26.60;3.27;;;14.70;40.00;;;;;;5008676;28;20479;-65
2022/05/25 02:59:36;;;;;;;26.50;3.67;;;14.80;40.00;;;;;;5009277;28;20494;-64
2022/05/25 03:02:04;;;;;;;28.30;3.70;;;14.70;40.10;;;;;;5008988;28;20534;-65
2022/05/25 03:04:31;;;;;;;26.93;3.20;;;14.70;40.30;;;;;;5008292;28;20525;-64
2022/05/25 03:07:00;;;;;;;28.57;3.80;;;14.70;40.20;;;;;;5009630;28;20490;-65
2022/05/25 03:09:26;;;;;;;27.70;4.10;;;14.70;40.20;;;;;;5010354;28;20460;-65
2022/05/25 03:11:54;;;;;;;28.63;3.53;;;14.70;40.00;;;;;;5008070;28;20471;-64
2022/05/25 03:14:21;;;;;;;27.00;3.87;;;14.70;40.00;;;;;;5008946;28;20511;-65
2022/05/25 03:16:47;;;;;;;27.70;3.57;;;14.70;40.10;;;;;;5008762;28;20480;-65
2022/05/25 03:19:14;;;;;;;29.23;3.53;;;14.60;40.10;;;;;;5008939;28;20462;-65
2022/05/25 03:21:41;;;;;;;29.33;3.87;;;14.60;40.20;;;;;;5006106;28;20475;-64
2022/05/25 03:24:10;;;;;;;27.00;3.60;;;14.50;40.00;;;;;;5008184;28;20460;-65
2022/05/25 03:26:37;;;;;;;29.13;4.10;;;14.50;39.90;;;;;;5007909;28;20476;-65
2022/05/25 03:29:04;;;;;;;27.30;4.10;;;14.50;39.90;;;;;;5009139;28;20463;-65
2022/05/25 03:31:30;;;;;;;29.40;3.73;;;14.50;39.70;;;;;;5008394;28;20490;-64
2022/05/25 03:33:57;;;;;;;28.20;4.40;;;14.50;39.90;;;;;;5007933;28;20478;-64
2022/05/25 03:36:24;;;;;;;30.73;4.03;;;14.50;39.70;;;;;;5009433;28;20948;-64
2022/05/25 03:38:51;;;;;;;27.90;4.37;;;14.50;39.30;;;;;;5008847;28;20467;-64
2022/05/25 03:41:20;;;;;;;30.30;5.70;;;14.40;39.20;;;;;;5009453;28;20518;-65
2022/05/25 03:43:47;;;;;;;30.57;6.80;;;14.40;39.50;;;;;;5007887;28;20875;-64
2022/05/25 03:46:14;;;;;;;31.10;6.53;;;14.40;39.50;;;;;;5008579;28;20479;-64
2022/05/25 03:48:41;;;;;;;31.93;6.53;;;14.30;39.50;;;;;;5009159;28;20471;-65
2022/05/25 03:51:08;;;;;;;32.30;6.57;;;14.30;39.60;;;;;;5008714;28;20452;-65
2022/05/25 03:53:35;;;;;;;30.17;5.60;;;14.30;39.50;;;;;;5007517;28;20852;-65
2022/05/25 03:56:01;;;;;;;30.33;5.80;;;14.30;39.50;;;;;;5008973;28;20463;-64
2022/05/25 03:58:29;;;;;;;29.13;6.37;;;14.20;39.60;;;;;;5009209;28;20468;-65
2022/05/25 04:00:56;;;;;;;29.37;5.83;;;14.20;39.90;;;;;;5008004;28;20471;-65
2022/05/25 04:03:23;;;;;;;31.70;7.33;;;14.20;40.40;;;;;;5007509;28;20464;-65
2022/05/25 04:05:50;;;;;;;31.37;8.63;;;14.30;40.60;;;;;;5006958;28;20474;-65
2022/05/25 04:08:17;;;;;;;33.27;7.70;;;14.30;40.60;;;;;;5008455;28;20487;-65
2022/05/25 04:10:44;;;;;;;32.70;8.13;;;14.30;41.10;;;;;;5005663;28;20975;-65
2022/05/25 04:13:11;;;;;;;33.73;7.23;;;14.30;40.90;;;;;;5009124;28;20460;-62
2022/05/25 04:15:39;;;;;;;36.53;7.43;;;14.30;42.00;;;;;;5007765;28;20460;-62
2022/05/25 04:18:06;;;;;;;33.53;7.00;;;14.20;41.30;;;;;;5006051;28;21020;-62
2022/05/25 04:20:33;;;;;;;28.37;6.33;;;14.20;41.30;;;;;;5005262;28;20887;-62
2022/05/25 04:23:02;;;;;;;29.30;6.27;;;14.20;41.50;;;;;;5000772;28;20954;-62
2022/05/25 04:25:30;;;;;;;29.47;4.93;;;14.20;41.60;;;;;;5000125;28;20460;-62
2022/05/25 04:27:58;;;;;;;29.37;5.07;;;14.20;41.70;;;;;;5001028;28;20505;-62
2022/05/25 04:30:26;;;;;;;30.20;4.00;;;14.20;41.60;;;;;;4998852;28;20484;-62
2022/05/25 04:32:55;;;;;;;27.70;4.43;;;14.20;41.70;;;;;;4988129;28;20960;-62
2022/05/25 04:35:24;;;;;;;30.17;4.77;;;14.20;41.70;;;;;;4994935;28;20666;-62
2022/05/25 04:37:53;;;;;;;27.53;4.03;;;14.20;41.60;;;;;;5008058;28;20487;-62
2022/05/25 04:40:25;;;;;;;30.07;3.77;;;14.30;41.40;;;;;;5008069;28;20907;-62
2022/05/25 04:42:53;;;;;;;28.80;4.27;;;14.30;41.50;;;;;;5008772;28;20457;-62
2022/05/25 04:45:20;;;;;;;27.40;3.57;;;14.30;41.20;;;;;;5006156;28;20626;-62
2022/05/25 04:47:48;;;;;;;29.23;4.37;;;14.30;41.00;;;;;;5008289;28;20476;-62
2022/05/25 04:50:19;;;;;;;29.30;4.13;;;14.30;40.80;;;;;;5006706;28;20456;-61
2022/05/25 04:52:46;;;;;;;29.03;3.43;;;14.30;40.80;;;;;;5007724;28;20471;-61
2022/05/25 04:57:19;;;;;;;28.93;3.87;;;14.40;39.90;;;;;;5006974;28;20467;-62
2022/05/25 04:58:01;;;;;;;28.37;4.03;;;14.40;39.90;;;;;;4993331;28;20519;-62
2022/05/25 05:00:28;;;;;;;29.87;3.70;;;14.30;39.80;;;;;;5007378;28;21020;-61
2022/05/25 05:02:55;;;;;;;29.90;3.83;;;14.30;40.10;;;;;;5007958;28;20631;-62
2022/05/25 05:05:23;;;;;;;29.30;3.70;;;14.30;39.90;;;;;;5007701;28;20460;-61
2022/05/25 05:07:50;;;;;;;30.63;4.47;;;14.20;40.20;;;;;;5006273;28;20483;-62
2022/05/25 05:10:17;;;;;;;28.53;3.70;;;14.30;39.90;;;;;;5007722;28;20452;-62
2022/05/25 05:12:44;;;;;;;30.87;4.30;;;14.30;40.10;;;;;;5008249;28;20460;-62
2022/05/25 05:15:12;;;;;;;26.70;3.50;;;14.30;39.90;;;;;;5007708;28;20455;-61
2022/05/25 05:17:38;;;;;;;30.70;4.30;;;14.30;40.30;;;;;;5007249;28;20479;-62
2022/05/25 05:20:07;;;;;;;29.17;3.77;;;14.30;40.60;;;;;;5007878;28;20544;-61
2022/05/25 05:22:35;;;;;;;29.37;4.20;;;14.30;40.60;;;;;;5011964;28;20471;-62
2022/05/25 05:25:02;;;;;;;27.60;3.43;;;14.30;40.70;;;;;;5011793;28;20460;-62
2022/05/25 05:27:29;;;;;;;27.37;3.73;;;14.30;40.90;;;;;;5011564;28;20988;-62
2022/05/25 05:29:59;;;;;;;27.60;3.60;;;14.30;40.80;;;;;;5009325;28;21015;-61
2022/05/25 05:32:27;;;;;;;27.60;4.17;;;14.40;40.80;;;;;;5010602;28;20843;-62
2022/05/25 05:34:54;;;;;;;27.70;4.13;;;14.40;40.80;;;;;;5009793;28;20495;-62
2022/05/25 05:37:25;;;;;;;28.10;2.97;;;14.50;40.80;;;;;;5010208;28;20700;-62
2022/05/25 05:39:56;;;;;;;28.00;3.67;;;14.50;40.80;;;;;;5009027;28;20460;-62
2022/05/25 05:42:25;;;;;;;27.83;3.97;;;14.60;40.70;;;;;;5010009;28;20940;-62
2022/05/25 05:44:54;;;;;;;28.10;3.70;;;14.60;40.30;;;;;;5009590;28;20993;-61
2022/05/25 05:47:24;;;;;;;28.37;4.20;;;14.70;40.40;;;;;;5010303;28;20485;-62
2022/05/25 05:49:51;;;;;;;30.10;3.00;;;14.80;39.90;;;;;;5009865;28;20467;-61
2022/05/25 05:52:18;;;;;;;29.37;3.10;;;14.90;39.90;;;;;;5009625;28;20991;-61
2022/05/25 05:54:45;;;;;;;28.03;3.07;;;15.00;39.50;;;;;;5008276;28;20869;-62
2022/05/25 05:57:15;;;;;;;27.33;2.93;;;15.10;38.90;;;;;;5002277;28;20496;-62
2022/05/25 05:59:42;;;;;;;27.07;2.90;;;15.20;38.70;;;;;;5001438;28;20813;-62
2022/05/25 06:02:08;;;;;;;29.37;3.23;;;15.30;38.40;;;;;;5008228;28;21033;-62
2022/05/25 06:04:35;;;;;;;27.00;3.07;;;15.40;38.20;;;;;;5009514;28;20456;-61
2022/05/25 06:07:03;;;;;;;26.93;3.07;;;15.50;38.20;;;;;;5010090;28;20566;-61
2022/05/25 06:09:30;;;;;;;27.30;3.10;;;15.60;38.20;;;;;;5009831;28;20459;-61
2022/05/25 06:11:57;;;;;;;29.10;3.73;;;15.80;38.10;;;;;;5001141;28;20471;-63
2022/05/25 06:14:25;;;;;;;26.90;3.10;;;16.10;38.10;;;;;;5003448;28;20470;-63
2022/05/25 06:19:37;;;;;;;27.80;3.20;;;16.60;37.00;;;;;;5009539;28;20438;-63
2022/05/25 06:22:07;;;;;;;26.97;2.80;;;16.90;36.20;;;;;;5008874;28;20574;-64
2022/05/25 06:24:37;;;;;;;28.43;2.27;;;17.20;35.50;;;;;;5010548;28;20467;-64
2022/05/25 06:27:07;;;;;;;28.40;2.73;;;17.40;34.40;;;;;;5009879;28;20479;-63
2022/05/25 06:29:36;;;;;;;26.30;2.27;;;17.50;33.40;;;;;;5010330;28;20555;-63
2022/05/25 06:32:04;;;;;;;28.23;2.93;;;17.60;32.70;;;;;;5007984;28;20487;-63
2022/05/25 06:34:30;;;;;;;27.70;2.57;;;17.70;32.30;;;;;;5009786;28;20558;-63
2022/05/25 06:36:57;;;;;;;27.00;2.47;;;17.80;31.10;;;;;;5010104;28;20490;-63
2022/05/25 06:39:24;;;;;;;27.33;2.73;;;17.80;30.70;;;;;;5009849;28;20460;-63
2022/05/25 06:41:51;;;;;;;29.40;3.03;;;17.80;30.10;;;;;;5008371;28;21069;-63
2022/05/25 06:44:18;;;;;;;26.80;2.77;;;17.80;30.10;;;;;;5009862;28;21343;-63
2022/05/25 06:46:46;;;;;;;27.00;3.00;;;17.80;30.10;;;;;;5009449;28;20820;-63
2022/05/25 06:49:15;;;;;;;26.47;2.90;;;17.80;30.10;;;;;;5010061;28;20468;-63
2022/05/25 06:51:42;;;;;;;28.03;2.83;;;17.70;30.10;;;;;;5009815;28;20471;-63
2022/05/25 06:54:09;;;;;;;26.57;2.90;;;17.70;30.30;;;;;;5008659;28;20466;-63
2022/05/25 06:56:36;;;;;;;27.13;2.90;;;17.70;30.30;;;;;;5008959;28;20667;-63
2022/05/25 06:59:03;;;;;;;26.97;3.17;;;17.60;30.30;;;;;;5009778;28;20459;-63
2022/05/25 07:01:30;;;;;;;26.40;3.17;;;17.60;30.20;;;;;;5009098;28;21197;-63
2022/05/25 07:03:59;;;;;;;30.90;3.13;;;17.60;30.50;;;;;;5007758;28;20467;-63
2022/05/25 07:06:26;;;;;;;28.30;3.57;;;17.50;30.70;;;;;;5009148;28;20476;-63
2022/05/25 07:08:53;;;;;;;26.93;3.90;;;17.50;31.30;;;;;;5006526;28;20562;-63
2022/05/25 07:11:22;;;;;;;27.20;3.83;;;17.60;31.60;;;;;;5003654;28;20468;-63
2022/05/25 07:13:49;;;;;;;27.17;3.73;;;17.80;31.90;;;;;;5008670;28;21087;-63
2022/05/25 07:16:18;;;;;;;26.67;2.90;;;18.10;30.60;;;;;;5008937;28;20487;-63
2022/05/25 07:18:46;;;;;;;29.17;4.23;;;18.30;30.30;;;;;;5009858;28;20467;-63
2022/05/25 07:21:17;;;;;;;30.27;3.20;;;18.40;29.60;;;;;;5008102;28;21039;-63
2022/05/25 07:23:46;;;;;;;27.07;3.37;;;18.50;28.80;;;;;;5007996;28;20491;-63
2022/05/25 07:26:13;;;;;;;27.33;3.20;;;18.50;28.40;;;;;;5008249;28;20460;-63
2022/05/25 07:28:40;;;;;;;26.37;2.70;;;18.50;27.90;;;;;;5009297;28;20463;-63
2022/05/25 07:31:10;;;;;;;28.40;3.23;;;18.50;28.00;;;;;;5008184;28;20472;-63
2022/05/25 07:33:40;;;;;;;33.20;3.07;;;18.60;27.80;;;;;;5007911;28;20992;-63
2022/05/25 07:36:10;;;;;;;26.87;2.67;;;18.60;28.10;;;;;;5006950;28;20464;-65
2022/05/25 07:38:42;;;;;;;27.63;3.70;;;18.60;28.00;;;;;;5008098;28;20562;-63
2022/05/25 07:41:10;;;;;;;26.57;2.90;;;18.70;27.60;;;;;;5008594;28;20921;-63
2022/05/25 07:43:39;;;;;;;26.33;3.13;;;18.70;27.90;;;;;;5007918;28;20828;-63
2022/05/25 07:46:06;;;;;;;26.10;2.73;;;18.70;27.90;;;;;;5006816;28;20468;-63
2022/05/25 07:48:34;;;;;;;26.90;2.80;;;18.70;27.30;;;;;;5008892;28;20829;-63
2022/05/25 07:51:01;;;;;;;26.17;2.93;;;18.70;27.10;;;;;;5007883;28;20504;-63
2022/05/25 07:56:13;;;;;;;27.90;3.23;;;18.70;26.80;;;;;;5006815;28;20479;-63
2022/05/25 07:58:40;;;;;;;27.13;2.90;;;18.70;26.90;;;;;;5008736;28;20460;-63
2022/05/25 08:01:12;;;;;;;26.10;3.33;;;18.70;27.20;;;;;;5007304;28;20495;-63
2022/05/25 08:06:24;;;;;;;30.73;3.40;;;18.60;27.10;;;;;;5007621;28;20483;-63
2022/05/25 08:08:51;;;;;;;28.37;3.07;;;18.60;26.80;;;;;;5008155;28;20948;-64
2022/05/25 08:11:21;;;;;;;27.80;2.70;;;18.60;26.50;;;;;;5008593;28;20467;-63
2022/05/25 08:13:52;;;;;;;26.53;3.03;;;18.60;26.50;;;;;;5007775;28;20555;-63
2022/05/25 08:16:19;;;;;;;28.57;3.70;;;18.60;26.20;;;;;;5007341;28;20518;-63
2022/05/25 08:18:46;;;;;;;27.83;4.13;;;18.60;26.20;;;;;;5007519;28;21009;-64
2022/05/25 08:21:13;;;;;;;27.70;3.87;;;18.60;26.30;;;;;;5006603;28;20494;-63
2022/05/25 08:23:39;;;;;;;27.07;3.40;;;18.60;26.10;;;;;;5007742;28;20460;-63
2022/05/25 08:26:06;;;;;;;26.67;3.43;;;18.70;25.80;;;;;;5006498;28;20464;-63
2022/05/25 08:28:34;;;;;;;28.80;3.60;;;19.50;26.30;;;;;;5007711;28;20999;-63
2022/05/25 08:31:01;;;;;;;27.47;3.50;;;20.50;24.20;;;;;;5006938;28;20475;-63
2022/05/25 08:33:28;;;;;;;29.87;3.73;;;20.90;21.70;;;;;;5008015;28;20463;-64
2022/05/25 08:35:55;;;;;;;26.73;3.73;;;21.10;19.80;;;;;;4988336;28;20464;-63
2022/05/25 08:38:23;;;;;;;30.23;3.13;;;21.00;20.00;;;;;;4985593;28;20461;-64
2022/05/25 08:40:52;;;;;;;26.47;3.27;;;21.00;19.90;;;;;;4986556;28;21017;-63
2022/05/25 08:43:23;;;;;;;27.17;3.10;;;21.10;19.10;;;;;;4985756;28;21015;-64
2022/05/25 08:45:55;;;;;;;27.90;2.87;;;21.30;19.20;;;;;;4988836;28;20461;-64
2022/05/25 08:48:24;;;;;;;26.80;3.17;;;21.40;18.20;;;;;;4998205;28;20467;-64
2022/05/25 08:50:53;;;;;;;29.33;4.53;;;21.40;18.30;;;;;;5004796;28;20486;-64
2022/05/25 08:53:23;;;;;;;28.27;2.83;;;21.30;18.10;;;;;;5008028;28;20464;-64
2022/05/25 08:55:58;;;;;;;27.30;3.00;;;21.20;18.10;;;;;;5012024;28;20521;-64
2022/05/25 08:58:34;;;;;;;28.50;3.30;;;21.00;18.30;;;;;;5010747;28;20467;-64
2022/05/25 09:01:04;;;;;;;27.30;3.20;;;21.00;18.60;;;;;;5010777;28;20475;-66
2022/05/25 09:03:39;;;;;;;27.30;3.27;;;21.00;17.90;;;;;;5011239;28;20456;-64
2022/05/25 09:06:13;;;;;;;28.40;3.30;;;20.90;18.80;;;;;;5011145;28;20593;-64
2022/05/25 09:08:48;;;;;;;27.23;3.40;;;20.90;18.80;;;;;;5010889;28;20460;-64
2022/05/25 09:11:18;;;;;;;26.63;3.17;;;20.90;18.30;;;;;;5011033;28;20436;-64
2022/05/25 09:13:52;;;;;;;26.70;3.37;;;20.90;18.70;;;;;;5011391;28;20458;-63
2022/05/25 09:16:23;;;;;;;28.10;3.53;;;21.30;18.70;;;;;;5010900;28;21012;-66
2022/05/25 09:19:01;;;;;;;27.10;3.43;;;21.60;17.20;;;;;;5009790;28;20460;-66
2022/05/25 09:21:32;;;;;;;27.20;3.57;;;21.70;16.90;;;;;;5011642;28;20490;-64
2022/05/25 09:24:03;;;;;;;26.67;3.27;;;21.60;16.90;;;;;;5011519;28;20901;-64
2022/05/25 09:26:31;;;;;;;27.67;3.07;;;21.50;17.30;;;;;;5010917;28;20480;-64
2022/05/25 09:29:02;;;;;;;28.50;4.17;;;21.60;17.30;;;;;;5009024;28;20549;-63
2022/05/25 09:31:37;;;;;;;27.60;3.40;;;21.80;16.60;;;;;;5010671;28;20475;-66
2022/05/25 09:34:08;;;;;;;27.97;3.50;;;22.10;17.10;;;;;;5010694;28;20443;-64
2022/05/25 09:36:41;;;;;;;27.60;3.80;;;22.30;15.60;;;;;;5011288;28;20558;-64
2022/05/25 09:39:15;;;;;;;27.20;3.83;;;22.60;14.50;;;;;;5009187;28;20447;-64
2022/05/25 09:41:43;;;;;;;27.30;3.33;;;22.90;13.40;;;;;;5011306;28;20509;-67
2022/05/25 09:44:12;;;;;;;28.10;3.80;;;23.10;13.60;;;;;;5010762;28;20463;-64
2022/05/25 09:46:43;;;;;;;28.73;4.20;;;23.60;12.40;;;;;;5010729;28;20755;-64
2022/05/25 09:49:12;;;;;;;26.87;3.20;;;24.00;12.00;;;;;;5011104;28;20451;-66
2022/05/25 09:51:44;;;;;;;34.80;4.30;;;24.20;11.30;;;;;;5008852;28;20471;-66
2022/05/25 09:54:15;;;;;;;26.70;3.30;;;24.20;10.60;;;;;;5009638;28;20809;-65
2022/05/25 09:56:46;;;;;;;26.63;3.20;;;24.40;11.10;;;;;;5008605;28;20540;-66
2022/05/25 09:59:20;;;;;;;26.37;2.93;;;24.70;11.00;;;;;;5010110;28;20801;-66
2022/05/25 10:01:49;;;;;;;26.90;3.50;;;25.20;10.40;;;;;;5007980;28;20478;-65
2022/05/25 10:04:34;;;;;;;27.47;2.50;;;25.60;9.30;;;;;;5010344;28;20448;-65
2022/05/25 10:07:13;;;;;;;25.87;2.40;;;25.90;8.30;;;;;;5010140;28;20634;-65
2022/05/25 10:09:48;;;;;;;26.70;2.70;;;26.00;7.50;;;;;;5010275;28;20940;-63
2022/05/25 10:12:31;;;;;;;27.07;2.97;;;25.80;7.60;;;;;;5009156;28;20463;-65
2022/05/25 10:15:01;;;;;;;26.17;2.17;;;25.70;7.80;;;;;;5009472;28;20448;-63
2022/05/25 10:17:35;;;;;;;26.90;2.30;;;25.60;7.50;;;;;;5009739;28;20487;-63
2022/05/25 10:20:04;;;;;;;26.90;2.70;;;25.60;7.30;;;;;;5010034;28;20460;-66
2022/05/25 10:22:34;;;;;;;27.90;2.70;;;25.70;8.50;;;;;;5007925;28;20487;-63
2022/05/25 10:25:05;;;;;;;26.50;2.60;;;25.50;7.40;;;;;;5010233;28;20451;-64
2022/05/25 10:27:38;;;;;;;26.50;2.93;;;25.20;6.00;;;;;;5010580;28;20483;-63
2022/05/25 10:38:47;;;;;;;26.57;2.57;;;23.70;9.90;;;;;;4990366;28;20428;-65
2022/05/25 10:44:07;;;;;;;29.67;2.67;;;23.10;9.30;;;;;;4989273;28;20972;-63
2022/05/25 10:46:34;;;;;;;27.60;2.77;;;22.80;11.10;;;;;;4990212;28;20491;-65
2022/05/25 10:49:10;;;;;;;26.47;2.73;;;22.70;11.90;;;;;;4989623;28;20468;-65
2022/05/25 10:51:42;;;;;;;27.10;2.63;;;22.40;11.70;;;;;;4990102;28;20472;-63
2022/05/25 10:57:08;;;;;;;27.03;2.40;;;22.00;11.60;;;;;;4971629;28;20464;-63
2022/05/25 10:59:44;;;;;;;26.70;2.50;;;21.80;10.20;;;;;;4970602;28;20449;-63
2022/05/25 11:02:23;;;;;;;28.13;2.43;;;21.60;12.50;;;;;;4985859;28;20476;-65
2022/05/25 11:05:03;;;;;;;27.03;2.50;;;21.50;11.70;;;;;;5008874;28;20463;-66
2022/05/25 11:07:33;;;;;;;26.90;2.40;;;21.30;11.90;;;;;;5008493;28;20479;-66
2022/05/25 11:10:23;;;;;;;26.93;2.40;;;21.20;12.70;;;;;;5008964;28;20463;-66
2022/05/25 11:13:03;;;;;;;26.90;3.30;;;21.10;12.30;;;;;;4997355;28;20467;-66
2022/05/25 11:15:36;;;;;;;26.03;2.27;;;20.90;13.80;;;;;;4989708;28;20472;-66
2022/05/25 11:18:16;;;;;;;26.60;2.47;;;20.90;14.10;;;;;;4988965;28;20536;-66
2022/05/25 11:20:52;;;;;;;29.60;3.07;;;20.90;15.20;;;;;;4989975;28;20468;-65
2022/05/25 11:23:49;;;;;;;26.90;3.20;;;21.00;15.00;;;;;;4990442;28;20469;-66
2022/05/25 11:26:39;;;;;;;26.90;2.47;;;20.90;13.10;;;;;;4986805;28;20488;-65
2022/05/25 11:29:19;;;;;;;26.63;2.33;;;21.00;14.30;;;;;;4989623;28;20926;-66
2022/05/25 11:31:58;;;;;;;26.90;2.30;;;21.20;14.80;;;;;;4988986;28;21132;-66
2022/05/25 11:34:36;;;;;;;26.90;2.77;;;21.30;13.20;;;;;;4989222;28;20488;-64
2022/05/25 11:37:33;;;;;;;28.47;2.90;;;21.40;13.70;;;;;;4989343;28;20989;-64
2022/05/25 11:40:22;;;;;;;27.73;2.60;;;21.40;11.60;;;;;;5100184;27;20557;-60
2022/05/25 11:43:28;;;;;;;26.17;2.20;;;21.40;12.60;;;;;;5098252;28;20466;-62
2022/05/25 11:46:16;;;;;;;26.20;2.60;;;21.50;13.60;;;;;;5099086;27;20531;-62
2022/05/25 11:48:59;;;;;;;27.33;2.60;;;21.60;14.80;;;;;;5103402;28;20448;-62
2022/05/25 11:51:38;;;;;;;26.03;2.17;;;21.80;14.20;;;;;;5101103;28;20463;-63
2022/05/25 11:54:22;;;;;;;27.23;3.40;;;21.80;13.30;;;;;;5103044;28;20579;-62
2022/05/25 11:56:57;;;;;;;26.30;2.30;;;21.70;12.00;;;;;;5091098;28;20463;-61
2022/05/25 11:59:54;;;;;;;25.73;2.10;;;21.70;11.70;;;;;;5096212;28;20490;-60
2022/05/25 12:02:45;;;;;;;26.73;2.50;;;21.80;13.00;;;;;;5049317;28;20485;-61
2022/05/25 12:05:22;;;;;;;27.63;2.30;;;22.00;12.30;;;;;;5064629;28;20974;-61
2022/05/25 12:08:07;;;;;;;26.77;2.10;;;22.10;11.10;;;;;;5055019;28;20469;-61
2022/05/25 12:10:37;;;;;;;28.20;2.80;;;22.00;9.70;;;;;;5055748;28;20473;-62
2022/05/25 12:13:13;;;;;;;27.80;2.70;;;22.00;10.40;;;;;;5056712;28;20473;-62
2022/05/25 12:15:52;;;;;;;26.47;2.53;;;22.20;10.40;;;;;;5057185;28;20519;-61
2022/05/25 12:18:26;;;;;;;29.20;3.03;;;22.20;9.20;;;;;;5055838;28;20503;-61
2022/05/25 12:20:56;;;;;;;27.70;2.80;;;22.20;9.90;;;;;;5053365;28;20464;-61
2022/05/25 12:23:29;;;;;;;27.60;2.90;;;22.20;10.90;;;;;;5055602;28;20480;-60
2022/05/25 12:25:58;;;;;;;30.73;2.50;;;22.20;11.20;;;;;;5054962;28;20469;-61
2022/05/25 12:28:31;;;;;;;28.90;3.10;;;22.20;12.60;;;;;;5045913;28;20532;-61
2022/05/25 12:31:01;;;;;;;25.80;2.40;;;22.40;12.80;;;;;;5048677;28;20482;-62
2022/05/25 12:33:29;;;;;;;28.17;2.60;;;22.70;13.10;;;;;;5031991;28;20482;-59
2022/05/25 12:35:57;;;;;;;27.60;3.13;;;22.80;11.40;;;;;;5029920;28;20467;-61
2022/05/25 12:38:26;;;;;;;26.40;2.67;;;22.90;11.70;;;;;;5026614;28;20853;-60
2022/05/25 12:40:53;;;;;;;26.43;2.83;;;22.80;10.90;;;;;;5038826;28;20525;-61
2022/05/25 12:43:51;;;;;;;25.90;2.00;;;22.80;11.20;;;;;;5039481;28;20478;-60
2022/05/25 12:49:32;;;;;;;27.17;2.80;;;22.60;11.00;;;;;;5029193;28;20871;-61
2022/05/25 12:51:59;;;;;;;27.27;2.50;;;22.70;10.80;;;;;;5022734;28;20466;-64
2022/05/25 12:54:30;;;;;;;26.50;1.90;;;22.60;10.30;;;;;;5038450;22;20495;-67
2022/05/25 12:57:00;;;;;;;27.70;2.40;;;22.40;11.50;;;;;;5005125;28;20534;-62
2022/05/25 12:59:33;;;;;;;27.47;3.00;;;22.40;11.60;;;;;;5006506;28;20572;-65
2022/05/25 13:02:14;;;;;;;26.30;2.07;;;22.50;11.20;;;;;;4994584;28;20484;-64
2022/05/25 13:04:47;;;;;;;26.07;2.37;;;22.60;11.30;;;;;;4990357;28;20510;-63
2022/05/25 13:07:43;;;;;;;26.13;2.20;;;22.70;11.00;;;;;;4983234;28;20578;-65
2022/05/25 13:10:46;;;;;;;26.20;2.00;;;22.90;10.60;;;;;;4984650;28;20469;-65
2022/05/25 13:13:27;;;;;;;25.97;2.37;;;22.90;10.20;;;;;;4960685;28;20461;-65
2022/05/25 13:15:55;;;;;;;26.67;2.47;;;22.80;10.90;;;;;;4987368;28;20961;-65
2022/05/25 13:18:49;;;;;;;26.10;2.30;;;22.60;11.20;;;;;;4988860;28;20476;-63
2022/05/25 13:21:39;;;;;;;25.77;2.30;;;22.50;12.60;;;;;;4985744;28;20464;-64
2022/05/25 13:24:46;;;;;;;26.33;2.60;;;22.30;12.70;;;;;;4987963;28;20515;-63
2022/05/25 13:27:40;;;;;;;26.20;2.47;;;22.20;11.70;;;;;;4984696;28;20465;-64
2022/05/25 13:30:23;;;;;;;27.53;3.00;;;22.10;12.30;;;;;;4985199;28;20819;-65
2022/05/25 13:32:54;;;;;;;25.60;2.17;;;22.00;12.90;;;;;;4985759;28;20483;-64